createdAt,value
2022-11-16T00:00:00.374Z,2.63
2022-11-16T00:02:30.993Z,2.50
2022-11-16T00:04:57.614Z,2.90
2022-11-16T00:07:24.271Z,2.50
2022-11-16T00:09:52.249Z,3.30
2022-11-16T00:12:18.793Z,2.63
2022-11-16T00:14:45.294Z,2.60
2022-11-16T00:17:11.828Z,3.40
2022-11-16T00:19:38.345Z,3.43
2022-11-16T00:22:04.967Z,2.70
2022-11-16T00:24:31.503Z,4.37
2022-11-16T00:26:59.406Z,4.33
2022-11-16T00:29:26.692Z,2.87
2022-11-16T00:31:53.998Z,3.70
2022-11-16T00:34:21.008Z,2.83
2022-11-16T00:36:47.616Z,2.83
2022-11-16T00:39:15.451Z,3.00
2022-11-16T00:41:42.679Z,3.20
2022-11-16T00:44:10.853Z,4.80
2022-11-16T00:46:37.646Z,4.17
2022-11-16T00:49:04.677Z,3.73
2022-11-16T00:51:31.540Z,3.43
2022-11-16T00:53:58.194Z,2.90
2022-11-16T00:56:24.728Z,3.67
2022-11-16T00:58:51.278Z,2.73
2022-11-16T01:01:19.436Z,4.83
2022-11-16T01:03:46.162Z,6.37
2022-11-16T01:06:14.329Z,3.57
2022-11-16T01:08:42.322Z,5.17
2022-11-16T01:11:10.008Z,12.73
2022-11-16T01:13:36.550Z,6.70
2022-11-16T01:16:03.199Z,4.90
2022-11-16T01:18:32.489Z,6.53
2022-11-16T01:20:59.239Z,8.30
2022-11-16T01:23:25.819Z,9.33
2022-11-16T01:25:56.283Z,5.47
2022-11-16T01:28:22.823Z,9.43
2022-11-16T01:30:49.366Z,5.80
2022-11-16T01:33:15.898Z,4.17
2022-11-16T01:35:44.258Z,3.30
2022-11-16T01:38:10.817Z,2.93
2022-11-16T01:40:37.438Z,4.70
2022-11-16T01:43:04.004Z,4.23
2022-11-16T01:45:37.388Z,6.10
2022-11-16T01:48:04.567Z,3.90
2022-11-16T01:50:31.194Z,4.17
2022-11-16T01:53:02.255Z,4.37
2022-11-16T01:55:32.211Z,5.20
2022-11-16T01:57:59.704Z,5.57
2022-11-16T02:00:26.564Z,4.17
2022-11-16T02:02:53.326Z,3.77
2022-11-16T02:05:27.990Z,5.60
2022-11-16T02:08:39.816Z,4.63
2022-11-16T02:11:20.261Z,4.17
2022-11-16T02:13:58.223Z,8.40
2022-11-16T02:16:34.105Z,7.30
2022-11-16T02:19:11.225Z,5.57
2022-11-16T02:21:42.693Z,4.33
2022-11-16T02:24:30.235Z,3.60
2022-11-16T02:27:14.786Z,4.03
2022-11-16T02:29:45.542Z,2.87
2022-11-16T02:32:16.050Z,3.10
2022-11-16T02:34:46.095Z,3.40
2022-11-16T02:37:17.473Z,2.90
2022-11-16T02:39:46.363Z,2.97
2022-11-16T02:42:17.189Z,4.20
2022-11-16T02:44:49.640Z,4.40
2022-11-16T02:47:19.986Z,3.23
2022-11-16T02:49:51.073Z,3.70
2022-11-16T02:52:18.727Z,3.17
2022-11-16T02:54:45.277Z,2.83
2022-11-16T02:57:37.582Z,3.03
2022-11-16T03:00:09.907Z,3.37
2022-11-16T03:02:43.884Z,3.47
2022-11-16T03:05:15.372Z,3.73
2022-11-16T03:07:46.622Z,3.13
2022-11-16T03:10:15.641Z,3.60
2022-11-16T03:12:42.499Z,3.13
2022-11-16T03:15:12.208Z,3.27
2022-11-16T03:17:42.372Z,3.50
2022-11-16T03:20:12.839Z,4.93
2022-11-16T03:22:42.069Z,3.10
2022-11-16T03:25:11.357Z,3.20
2022-11-16T03:27:40.414Z,3.03
2022-11-16T03:30:11.979Z,2.90
2022-11-16T03:32:44.279Z,3.00
2022-11-16T03:35:17.779Z,3.50
2022-11-16T03:37:47.148Z,2.97
2022-11-16T03:40:15.604Z,3.13
2022-11-16T03:42:43.498Z,2.67
2022-11-16T03:45:13.046Z,3.60
2022-11-16T03:47:40.349Z,3.47
2022-11-16T03:50:07.795Z,4.07
2022-11-16T03:52:34.908Z,3.80
2022-11-16T03:55:01.484Z,3.67
2022-11-16T03:57:28.013Z,4.27
2022-11-16T03:59:54.570Z,4.10
2022-11-16T04:02:22.812Z,3.50
2022-11-16T04:04:49.399Z,3.60
2022-11-16T04:07:16.021Z,3.83
2022-11-16T04:09:42.547Z,3.37
2022-11-16T04:12:09.280Z,5.33
2022-11-16T04:14:35.992Z,3.50
2022-11-16T04:17:02.647Z,4.13
2022-11-16T04:19:30.561Z,3.10
2022-11-16T04:22:01.438Z,3.40
2022-11-16T04:24:31.468Z,3.60
2022-11-16T04:27:00.593Z,3.33
2022-11-16T04:29:27.312Z,3.17
2022-11-16T04:31:53.893Z,3.67
2022-11-16T04:34:20.540Z,4.00
2022-11-16T04:36:48.448Z,3.63
2022-11-16T04:39:15.086Z,3.70
2022-11-16T04:41:41.667Z,4.10
2022-11-16T04:44:08.200Z,4.63
2022-11-16T04:46:34.813Z,3.67
2022-11-16T04:49:01.343Z,4.07
2022-11-16T04:51:28.837Z,4.27
2022-11-16T04:53:56.784Z,3.47
2022-11-16T04:56:23.334Z,3.83
2022-11-16T04:58:49.910Z,3.93
2022-11-16T05:01:16.517Z,3.60
2022-11-16T05:03:43.127Z,3.40
2022-11-16T05:06:09.648Z,3.57
2022-11-16T05:08:36.375Z,3.23
2022-11-16T05:11:04.525Z,3.87
2022-11-16T05:13:31.087Z,3.40
2022-11-16T05:15:57.611Z,3.33
2022-11-16T05:18:24.170Z,4.20
2022-11-16T05:20:50.687Z,3.87
2022-11-16T05:23:20.213Z,4.00
2022-11-16T05:25:46.727Z,3.97
2022-11-16T05:28:14.669Z,3.57
2022-11-16T05:30:41.162Z,4.00
2022-11-16T05:33:07.730Z,3.90
2022-11-16T05:35:34.270Z,3.60
2022-11-16T05:38:00.763Z,3.60
2022-11-16T05:40:27.294Z,3.73
2022-11-16T05:42:53.803Z,4.07
2022-11-16T05:45:21.714Z,3.73
2022-11-16T05:47:48.236Z,3.50
2022-11-16T05:50:15.537Z,3.03
2022-11-16T05:52:42.073Z,2.97
2022-11-16T05:55:09.416Z,3.23
2022-11-16T05:57:35.965Z,3.90
2022-11-16T06:00:03.184Z,4.00
2022-11-16T06:02:32.143Z,3.07
2022-11-16T06:04:58.673Z,2.77
2022-11-16T06:07:25.308Z,2.90
2022-11-16T06:09:51.812Z,3.13
2022-11-16T06:12:18.372Z,3.20
2022-11-16T06:14:44.918Z,2.97
2022-11-16T06:17:11.455Z,3.03
2022-11-16T06:19:39.356Z,3.53
2022-11-16T06:22:05.894Z,3.13
2022-11-16T06:24:32.459Z,3.03
2022-11-16T06:26:59.173Z,3.00
2022-11-16T06:29:25.720Z,2.80
2022-11-16T06:31:52.275Z,3.63
2022-11-16T06:34:18.796Z,3.30
2022-11-16T06:36:46.719Z,2.87
2022-11-16T06:39:13.324Z,3.90
2022-11-16T06:41:41.495Z,3.30
2022-11-16T06:44:08.449Z,2.97
2022-11-16T06:46:34.981Z,3.30
2022-11-16T06:49:01.535Z,4.47
2022-11-16T06:51:28.090Z,3.63
2022-11-16T06:53:56.051Z,5.20
2022-11-16T06:56:22.604Z,3.50
2022-11-16T06:58:53.007Z,3.67
2022-11-16T07:01:20.157Z,3.47
2022-11-16T07:03:46.713Z,3.57
2022-11-16T07:06:14.004Z,3.90
2022-11-16T07:08:40.557Z,3.90
2022-11-16T07:11:10.162Z,3.50
2022-11-16T07:13:38.330Z,3.33
2022-11-16T07:16:06.824Z,3.80
2022-11-16T07:18:34.111Z,3.13
2022-11-16T07:21:05.592Z,3.37
2022-11-16T07:23:32.127Z,3.23
2022-11-16T07:26:00.035Z,3.03
2022-11-16T07:28:29.504Z,4.30
2022-11-16T07:30:56.170Z,4.17
2022-11-16T07:33:22.710Z,3.13
2022-11-16T07:35:49.246Z,3.00
2022-11-16T07:38:18.201Z,3.40
2022-11-16T07:40:44.973Z,3.03
2022-11-16T07:43:11.563Z,3.23
2022-11-16T07:45:39.491Z,3.27
2022-11-16T07:48:06.287Z,2.73
2022-11-16T07:50:32.839Z,3.13
2022-11-16T07:52:59.373Z,2.83
2022-11-16T07:55:26.017Z,3.30
2022-11-16T07:57:53.572Z,3.07
2022-11-16T08:00:20.241Z,3.67
2022-11-16T08:02:48.149Z,4.23
2022-11-16T08:05:14.829Z,3.33
2022-11-16T08:07:41.404Z,3.50
2022-11-16T08:10:08.980Z,3.53
2022-11-16T08:12:35.611Z,4.60
2022-11-16T08:15:02.156Z,3.77
2022-11-16T08:17:28.707Z,5.37
2022-11-16T08:19:56.602Z,4.80
2022-11-16T08:22:23.150Z,4.60
2022-11-16T08:24:49.711Z,3.93
2022-11-16T08:27:16.226Z,3.70
2022-11-16T08:29:42.876Z,3.03
2022-11-16T08:32:09.396Z,2.67
2022-11-16T08:34:36.012Z,2.40
2022-11-16T08:37:03.904Z,2.60
2022-11-16T08:39:30.452Z,2.30
2022-11-16T08:41:56.987Z,2.70
2022-11-16T08:44:23.695Z,1.43
2022-11-16T08:46:50.303Z,1.93
2022-11-16T08:49:16.816Z,2.33
2022-11-16T08:51:43.359Z,2.27
2022-11-16T08:54:11.281Z,1.57
2022-11-16T08:56:37.855Z,1.60
2022-11-16T08:59:04.386Z,2.20
2022-11-16T09:01:31.800Z,1.30
2022-11-16T09:03:58.730Z,1.50
2022-11-16T09:06:27.118Z,1.30
2022-11-16T09:08:53.888Z,3.23
2022-11-16T09:11:23.883Z,1.20
2022-11-16T09:13:52.417Z,1.40
2022-11-16T09:16:19.794Z,2.40
2022-11-16T09:18:47.008Z,1.77
2022-11-16T09:21:17.374Z,1.60
2022-11-16T09:23:43.882Z,1.37
2022-11-16T09:26:10.420Z,2.40
2022-11-16T09:28:38.327Z,1.27
2022-11-16T09:31:05.423Z,1.80
2022-11-16T09:33:33.036Z,1.97
2022-11-16T09:36:03.920Z,2.47
2022-11-16T09:38:46.569Z,2.13
2022-11-16T09:41:33.851Z,1.37
2022-11-16T09:44:12.651Z,1.77
2022-11-16T09:46:42.566Z,2.83
2022-11-16T09:49:17.755Z,1.57
2022-11-16T09:51:48.156Z,1.50
2022-11-16T09:54:18.312Z,1.13
2022-11-16T09:56:47.511Z,2.27
2022-11-16T09:59:21.672Z,1.90
2022-11-16T10:01:52.357Z,2.00
2022-11-16T10:04:24.225Z,2.27
2022-11-16T10:06:55.962Z,2.53
2022-11-16T10:09:23.085Z,3.27
2022-11-16T10:12:14.918Z,3.13
2022-11-16T10:14:59.493Z,2.43
2022-11-16T10:17:34.722Z,2.27
2022-11-16T10:20:16.690Z,1.90
2022-11-16T10:22:54.137Z,2.00
2022-11-16T10:25:22.621Z,2.93
2022-11-16T10:28:10.485Z,2.13
2022-11-16T10:30:46.564Z,1.43
2022-11-16T10:33:19.466Z,2.80
2022-11-16T10:35:49.150Z,2.10
2022-11-16T10:38:17.681Z,2.67
2022-11-16T10:40:46.363Z,3.90
2022-11-16T10:43:15.513Z,1.87
2022-11-16T10:45:50.385Z,3.60
2022-11-16T10:48:30.709Z,5.00
2022-11-16T10:50:57.640Z,4.03
2022-11-16T10:53:28.833Z,2.83
2022-11-16T10:56:10.803Z,2.63
2022-11-16T10:58:54.005Z,4.73
2022-11-16T11:01:31.333Z,3.33
2022-11-16T11:04:10.156Z,2.27
2022-11-16T11:06:39.131Z,1.60
2022-11-16T11:09:15.172Z,2.03
2022-11-16T11:11:41.911Z,2.80
2022-11-16T11:14:10.821Z,1.60
2022-11-16T11:16:38.845Z,3.10
2022-11-16T11:19:23.558Z,2.20
2022-11-16T11:21:50.224Z,2.30
2022-11-16T11:24:43.315Z,1.70
2022-11-16T11:27:04.266Z,3.40
2022-11-16T11:29:32.755Z,2.30
2022-11-16T11:32:05.238Z,2.43
2022-11-16T11:34:39.231Z,4.10
2022-11-16T11:37:12.564Z,2.37
2022-11-16T11:39:39.250Z,2.50
2022-11-16T11:42:23.003Z,1.97
2022-11-16T11:44:56.139Z,2.20
2022-11-16T11:50:34.421Z,2.67
2022-11-16T11:53:07.015Z,2.20
2022-11-16T11:55:34.227Z,2.00
2022-11-16T11:58:02.555Z,1.83
2022-11-16T12:00:38.471Z,5.10
2022-11-16T12:03:36.861Z,2.77
2022-11-16T12:06:09.748Z,2.27
2022-11-16T12:08:57.099Z,1.73
2022-11-16T12:11:33.497Z,2.20
2022-11-16T12:14:21.670Z,2.97
2022-11-16T12:16:56.955Z,3.40
2022-11-16T12:19:42.963Z,4.37
2022-11-16T12:22:23.977Z,3.80
2022-11-16T12:25:04.128Z,1.97
2022-11-16T12:27:38.982Z,2.47
2022-11-16T12:30:11.193Z,2.20
2022-11-16T12:32:54.489Z,2.10
2022-11-16T12:35:38.855Z,3.27
2022-11-16T12:38:24.888Z,2.70
2022-11-16T12:41:03.336Z,2.87
2022-11-16T12:43:38.832Z,3.37
2022-11-16T12:46:16.714Z,1.73
2022-11-16T12:48:58.434Z,2.00
2022-11-16T12:51:41.471Z,1.67
2022-11-16T12:54:21.573Z,10.17
2022-11-16T12:56:58.101Z,11.20
2022-11-16T12:59:38.460Z,14.57
2022-11-16T13:02:16.208Z,11.10
2022-11-16T13:04:45.678Z,10.23
2022-11-16T13:07:19.964Z,7.67
2022-11-16T13:09:50.092Z,5.13
2022-11-16T13:12:21.028Z,4.70
2022-11-16T13:14:49.520Z,9.07
2022-11-16T13:17:21.104Z,6.63
2022-11-16T13:20:17.889Z,4.73
2022-11-16T13:22:51.291Z,4.47
2022-11-16T13:25:25.118Z,3.20
2022-11-16T13:27:55.114Z,3.30
2022-11-16T13:30:24.544Z,4.03
2022-11-16T13:33:13.462Z,3.77
2022-11-16T13:35:40.019Z,3.83
2022-11-16T13:38:11.766Z,2.77
2022-11-16T13:40:38.416Z,1.70
2022-11-16T13:43:15.205Z,2.27
2022-11-16T13:45:44.255Z,2.90
2022-11-16T13:48:18.147Z,3.33
2022-11-16T13:50:49.651Z,4.90
2022-11-16T13:54:37.888Z,3.17
2022-11-16T13:56:12.964Z,2.80
2022-11-16T13:58:46.083Z,2.57
2022-11-16T14:01:14.431Z,2.87
2022-11-16T14:03:41.738Z,2.00
2022-11-16T14:06:41.489Z,3.17
2022-11-16T14:09:43.927Z,2.33
2022-11-16T14:12:55.012Z,2.60
2022-11-16T14:15:23.677Z,3.23
2022-11-16T14:17:55.687Z,2.03
2022-11-16T14:20:44.212Z,1.13
2022-11-16T14:23:48.196Z,2.10
2022-11-16T14:26:21.703Z,1.53
2022-11-16T14:29:08.247Z,2.60
2022-11-16T14:31:48.327Z,2.30
2022-11-16T14:34:18.105Z,3.73
2022-11-16T14:36:46.581Z,2.67
2022-11-16T14:39:33.342Z,3.27
2022-11-16T14:42:03.930Z,4.83
2022-11-16T14:44:35.291Z,3.33
2022-11-16T14:47:03.041Z,3.10
2022-11-16T14:49:33.430Z,3.77
2022-11-16T14:52:02.797Z,3.93
2022-11-16T14:54:36.786Z,3.73
2022-11-16T14:57:06.727Z,3.47
2022-11-16T14:59:33.589Z,3.60
2022-11-16T15:02:07.825Z,2.47
2022-11-16T15:04:34.379Z,2.80
2022-11-16T15:07:03.671Z,4.20
2022-11-16T15:09:33.767Z,3.10
2022-11-16T15:12:05.096Z,5.20
2022-11-16T15:14:34.351Z,2.23
2022-11-16T15:17:00.900Z,3.13
2022-11-16T15:19:30.030Z,4.13
2022-11-16T15:21:58.829Z,3.23
2022-11-16T15:24:31.787Z,2.30
2022-11-16T15:27:16.179Z,2.43
2022-11-16T15:29:42.774Z,2.17
2022-11-16T15:32:15.582Z,2.50
2022-11-16T15:34:42.702Z,3.93
2022-11-16T15:37:11.318Z,3.87
2022-11-16T15:39:39.486Z,2.77
2022-11-16T15:42:06.426Z,2.63
2022-11-16T15:44:34.585Z,3.40
2022-11-16T15:47:03.030Z,3.53
2022-11-16T15:49:32.218Z,2.73
2022-11-16T15:51:59.555Z,2.60
2022-11-16T15:54:28.449Z,3.90
2022-11-16T15:56:56.624Z,5.47
2022-11-16T15:59:26.980Z,4.50
2022-11-16T16:01:55.605Z,4.97
2022-11-16T16:04:22.519Z,2.80
2022-11-16T16:06:51.352Z,3.13
2022-11-16T16:09:24.454Z,3.23
2022-11-16T16:11:51.603Z,7.87
2022-11-16T16:14:23.344Z,5.47
2022-11-16T16:16:50.328Z,7.07
2022-11-16T16:19:45.839Z,3.70
2022-11-16T16:22:14.522Z,2.73
2022-11-16T16:24:43.057Z,2.33
2022-11-16T16:27:15.393Z,4.07
2022-11-16T16:29:42.320Z,4.07
2022-11-16T16:32:14.948Z,3.87
2022-11-16T16:34:42.449Z,3.50
2022-11-16T16:37:11.892Z,5.57
2022-11-16T16:39:38.693Z,2.83
2022-11-16T16:42:08.207Z,2.93
2022-11-16T16:44:34.841Z,3.43
2022-11-16T16:47:01.375Z,3.27
2022-11-16T16:49:27.973Z,4.03
2022-11-16T16:51:54.589Z,2.70
2022-11-16T16:54:22.598Z,4.03
2022-11-16T16:56:49.126Z,4.73
2022-11-16T16:59:15.704Z,5.53
2022-11-16T17:01:42.388Z,6.77
2022-11-16T17:04:09.000Z,6.40
2022-11-16T17:06:36.063Z,4.90
2022-11-16T17:09:02.720Z,5.53
2022-11-16T17:11:30.646Z,6.90
2022-11-16T17:13:57.219Z,7.97
2022-11-16T17:16:23.759Z,7.93
2022-11-16T17:18:54.109Z,7.67
2022-11-16T17:21:20.668Z,4.97
2022-11-16T17:23:47.205Z,4.73
2022-11-16T17:26:13.738Z,3.83
2022-11-16T17:28:41.679Z,4.37
2022-11-16T17:31:10.304Z,4.80
2022-11-16T17:33:37.671Z,5.73
2022-11-16T17:36:05.623Z,5.00
2022-11-16T17:38:32.736Z,5.20
2022-11-16T17:41:03.754Z,4.37
2022-11-16T17:43:30.263Z,4.30
2022-11-16T17:46:03.654Z,3.93
2022-11-16T17:48:30.396Z,2.37
2022-11-16T17:50:56.943Z,2.60
2022-11-16T17:53:26.151Z,4.13
2022-11-16T17:55:55.055Z,2.77
2022-11-16T17:58:21.633Z,4.43
2022-11-16T18:00:49.349Z,3.43
2022-11-16T18:03:17.491Z,5.23
2022-11-16T18:05:44.294Z,4.17
2022-11-16T18:08:11.036Z,5.93
2022-11-16T18:10:38.142Z,6.13
2022-11-16T18:13:05.538Z,5.27
2022-11-16T18:15:37.770Z,17.73
2022-11-16T18:18:07.451Z,10.40
2022-11-16T18:20:37.534Z,8.43
2022-11-16T18:23:04.626Z,5.67
2022-11-16T18:25:34.075Z,12.03
2022-11-16T18:28:00.593Z,11.83
2022-11-16T18:30:27.119Z,10.37
2022-11-16T18:32:54.209Z,8.40
2022-11-16T18:35:20.737Z,9.27
2022-11-16T18:37:48.692Z,29.83
2022-11-16T18:40:15.297Z,22.33
2022-11-16T18:42:41.853Z,18.00
2022-11-16T18:45:09.203Z,10.87
2022-11-16T18:47:35.759Z,7.20
2022-11-16T18:50:02.315Z,7.23
2022-11-16T18:52:28.909Z,4.73
2022-11-16T18:54:56.828Z,5.43
2022-11-16T18:57:23.455Z,3.80
2022-11-16T18:59:50.021Z,4.40
2022-11-16T19:02:16.555Z,6.60
2022-11-16T19:04:43.083Z,10.07
2022-11-16T19:07:09.780Z,7.00
2022-11-16T19:09:36.389Z,4.97
2022-11-16T19:12:04.729Z,4.50
2022-11-16T19:14:31.298Z,5.40
2022-11-16T19:16:58.338Z,3.70
2022-11-16T19:19:25.193Z,5.13
2022-11-16T19:21:51.811Z,5.37
2022-11-16T19:24:18.404Z,6.43
2022-11-16T19:26:45.007Z,6.90
2022-11-16T19:29:12.966Z,8.27
2022-11-16T19:31:39.541Z,6.93
2022-11-16T19:34:07.785Z,7.73
2022-11-16T19:36:36.215Z,7.10
2022-11-16T19:39:03.301Z,5.63
2022-11-16T19:41:29.906Z,6.37
2022-11-16T19:43:58.561Z,5.37
2022-11-16T19:46:29.014Z,5.67
2022-11-16T19:48:55.837Z,5.07
2022-11-16T19:51:24.220Z,4.67
2022-11-16T19:53:51.214Z,5.60
2022-11-16T19:56:19.811Z,4.83
2022-11-16T19:58:46.456Z,4.70
2022-11-16T20:01:14.871Z,5.50
2022-11-16T20:03:43.538Z,4.10
2022-11-16T20:06:11.859Z,14.90
2022-11-16T20:08:40.010Z,10.80
2022-11-16T20:11:10.810Z,26.20
2022-11-16T20:13:37.757Z,24.33
2022-11-16T20:16:05.071Z,13.80
2022-11-16T20:18:31.626Z,12.63
2022-11-16T20:21:01.825Z,34.03
2022-11-16T20:23:28.632Z,33.00
2022-11-16T20:25:55.178Z,16.10
2022-11-16T20:28:21.732Z,7.93
2022-11-16T20:30:48.926Z,5.87
2022-11-16T20:33:15.419Z,5.80
2022-11-16T20:35:41.945Z,4.20
2022-11-16T20:38:09.835Z,4.53
2022-11-16T20:40:36.376Z,4.70
2022-11-16T20:43:02.991Z,4.20
2022-11-16T20:45:32.717Z,4.93
2022-11-16T20:47:59.267Z,5.17
2022-11-16T20:50:25.855Z,4.43
2022-11-16T20:52:52.986Z,4.47
2022-11-16T20:55:20.956Z,4.30
2022-11-16T20:57:47.457Z,3.37
2022-11-16T21:00:15.291Z,3.30
2022-11-16T21:02:41.896Z,5.57
2022-11-16T21:05:09.322Z,4.00
2022-11-16T21:07:35.966Z,3.73
2022-11-16T21:10:02.624Z,3.53
2022-11-16T21:12:30.517Z,2.80
2022-11-16T21:14:57.086Z,3.13
2022-11-16T21:17:23.637Z,3.07
2022-11-16T21:20:20.071Z,5.20
2022-11-16T21:22:36.665Z,4.30
2022-11-16T21:25:03.297Z,4.30
2022-11-16T21:27:31.257Z,4.83
2022-11-16T21:29:57.775Z,29.47
2022-11-16T21:32:24.350Z,14.20
2022-11-16T21:34:50.884Z,6.67
2022-11-16T21:37:17.526Z,4.57
2022-11-16T21:39:44.134Z,4.93
2022-11-16T21:42:10.673Z,5.57
2022-11-16T21:44:38.565Z,6.53
2022-11-16T21:47:05.117Z,5.03
2022-11-16T21:49:31.631Z,4.37
2022-11-16T21:51:58.179Z,4.80
2022-11-16T21:54:24.717Z,3.53
2022-11-16T21:56:51.264Z,3.67
2022-11-16T21:59:17.790Z,4.97
2022-11-16T22:01:45.733Z,4.00
2022-11-16T22:04:12.287Z,6.83
2022-11-16T22:06:38.817Z,5.63
2022-11-16T22:09:05.406Z,4.90
2022-11-16T22:11:31.932Z,4.50
2022-11-16T22:13:58.464Z,9.93
2022-11-16T22:16:24.996Z,13.20
2022-11-16T22:18:52.908Z,13.70
2022-11-16T22:21:19.432Z,13.23
2022-11-16T22:23:45.955Z,12.73
2022-11-16T22:26:13.463Z,9.43
2022-11-16T22:28:40.428Z,10.53
2022-11-16T22:31:09.195Z,9.47
2022-11-16T22:33:36.023Z,7.53
2022-11-16T22:36:05.220Z,5.90
2022-11-16T22:38:31.826Z,5.90
2022-11-16T22:40:58.450Z,4.17
2022-11-16T22:43:26.707Z,3.93
2022-11-16T22:45:57.105Z,2.77
2022-11-16T22:48:23.614Z,3.00
2022-11-16T22:50:50.129Z,7.53
2022-11-16T22:53:18.076Z,6.97
2022-11-16T22:55:44.605Z,7.30
2022-11-16T22:58:11.171Z,3.57
2022-11-16T23:00:42.024Z,7.13
2022-11-16T23:03:08.979Z,5.77
2022-11-16T23:05:35.535Z,4.53
2022-11-16T23:08:02.095Z,3.97
2022-11-16T23:10:30.053Z,5.63
2022-11-16T23:12:56.577Z,5.33
2022-11-16T23:15:23.151Z,4.53
2022-11-16T23:17:49.660Z,4.10
2022-11-16T23:20:17.742Z,2.40
2022-11-16T23:22:44.590Z,3.73
2022-11-16T23:25:11.687Z,2.77
2022-11-16T23:27:44.495Z,6.00
2022-11-16T23:30:13.299Z,6.37
2022-11-16T23:32:40.436Z,4.70
2022-11-16T23:35:07.699Z,5.13
2022-11-16T23:37:34.416Z,4.17
2022-11-16T23:40:00.955Z,5.93
2022-11-16T23:42:27.462Z,7.10
2022-11-16T23:44:55.399Z,5.93
2022-11-16T23:47:22.056Z,3.67
2022-11-16T23:49:48.655Z,3.60
2022-11-16T23:52:15.340Z,3.83
2022-11-16T23:54:41.858Z,2.80
2022-11-16T23:57:08.611Z,3.93
2022-11-16T23:59:35.146Z,4.73
